createdAt,value
2023-03-29T00:01:35.397Z,5.33
2023-03-29T00:04:06.502Z,4.67
2023-03-29T00:06:38.538Z,3.37
2023-03-29T00:09:10.313Z,5.20
2023-03-29T00:11:41.400Z,2.90
2023-03-29T00:14:13.387Z,3.60
2023-03-29T00:16:45.465Z,3.43
2023-03-29T00:19:16.361Z,3.83
2023-03-29T00:21:46.490Z,3.37
2023-03-29T00:24:17.376Z,4.30
2023-03-29T00:26:47.295Z,3.10
2023-03-29T00:29:19.296Z,2.77
2023-03-29T00:31:54.146Z,3.50
2023-03-29T00:34:30.883Z,3.57
2023-03-29T00:37:01.174Z,4.33
2023-03-29T00:39:32.887Z,2.13
2023-03-29T00:42:03.042Z,3.77
2023-03-29T00:45:02.763Z,3.53
2023-03-29T00:47:37.790Z,3.07
2023-03-29T00:50:15.385Z,4.13
2023-03-29T00:52:48.992Z,2.33
2023-03-29T00:55:23.684Z,2.60
2023-03-29T00:57:56.090Z,4.00
2023-03-29T01:00:32.201Z,4.70
2023-03-29T01:03:03.471Z,3.30
2023-03-29T01:05:37.882Z,3.03
2023-03-29T01:08:13.163Z,2.63
2023-03-29T01:10:47.403Z,3.50
2023-03-29T01:13:23.489Z,5.00
2023-03-29T01:15:56.756Z,2.80
2023-03-29T01:18:26.583Z,2.97
2023-03-29T01:21:12.746Z,2.07
2023-03-29T01:24:07.357Z,2.70
2023-03-29T01:26:45.185Z,3.07
2023-03-29T01:29:22.069Z,6.43
2023-03-29T01:31:57.157Z,2.10
2023-03-29T01:34:31.512Z,3.00
2023-03-29T01:37:06.667Z,4.30
2023-03-29T01:39:37.035Z,2.13
2023-03-29T01:42:18.835Z,5.27
2023-03-29T01:44:56.850Z,4.87
2023-03-29T01:47:33.152Z,3.40
2023-03-29T01:50:10.077Z,2.63
2023-03-29T01:52:44.637Z,3.60
2023-03-29T01:55:17.544Z,3.90
2023-03-29T01:57:49.510Z,3.13
2023-03-29T02:00:25.233Z,4.27
2023-03-29T02:03:01.166Z,2.70
2023-03-29T02:05:32.797Z,4.93
2023-03-29T02:08:05.964Z,2.57
2023-03-29T02:10:37.665Z,4.33
2023-03-29T02:13:08.448Z,2.43
2023-03-29T02:15:40.408Z,3.50
2023-03-29T02:18:11.723Z,3.47
2023-03-29T02:20:44.683Z,2.83
2023-03-29T02:23:21.938Z,3.67
2023-03-29T02:25:53.847Z,2.23
2023-03-29T02:28:25.704Z,4.33
2023-03-29T02:31:03.819Z,2.50
2023-03-29T02:33:36.902Z,4.50
2023-03-29T02:36:12.197Z,5.47
2023-03-29T02:38:42.956Z,2.80
2023-03-29T02:41:13.703Z,2.93
2023-03-29T02:43:45.912Z,3.50
2023-03-29T02:46:18.972Z,2.10
2023-03-29T02:48:51.715Z,2.20
2023-03-29T02:51:24.216Z,4.30
2023-03-29T02:53:59.014Z,2.30
2023-03-29T02:56:29.770Z,3.93
2023-03-29T02:58:59.706Z,3.00
2023-03-29T03:01:31.699Z,3.63
2023-03-29T03:04:02.962Z,2.93
2023-03-29T03:06:38.013Z,4.97
2023-03-29T03:09:10.946Z,2.87
2023-03-29T03:11:41.157Z,2.57
2023-03-29T03:14:11.785Z,2.63
2023-03-29T03:16:43.422Z,3.57
2023-03-29T03:19:14.683Z,4.07
2023-03-29T03:21:47.341Z,2.73
2023-03-29T03:24:17.883Z,2.90
2023-03-29T03:26:48.421Z,2.90
2023-03-29T03:29:19.636Z,3.17
2023-03-29T03:31:54.179Z,4.10
2023-03-29T03:34:26.754Z,3.73
2023-03-29T03:36:58.632Z,2.30
2023-03-29T03:39:30.904Z,2.43
2023-03-29T03:42:02.069Z,8.17
2023-03-29T03:44:33.179Z,2.63
2023-03-29T03:47:08.036Z,2.90
2023-03-29T03:49:39.769Z,5.97
2023-03-29T03:52:11.811Z,2.50
2023-03-29T03:54:42.587Z,4.00
2023-03-29T03:57:13.408Z,2.23
2023-03-29T03:59:44.268Z,3.70
2023-03-29T04:02:16.814Z,3.10
2023-03-29T04:04:48.925Z,2.90
2023-03-29T04:07:20.362Z,5.50
2023-03-29T04:09:50.933Z,2.57
2023-03-29T04:12:21.107Z,3.57
2023-03-29T04:14:51.006Z,2.30
2023-03-29T04:17:22.983Z,5.80
2023-03-29T04:19:53.856Z,2.67
2023-03-29T04:22:25.636Z,3.73
2023-03-29T04:24:56.798Z,4.70
2023-03-29T04:27:26.992Z,3.80
2023-03-29T04:29:57.740Z,2.93
2023-03-29T04:32:30.045Z,3.47
2023-03-29T04:34:59.771Z,5.67
2023-03-29T04:37:30.290Z,4.77
2023-03-29T04:40:01.174Z,2.60
2023-03-29T04:42:31.809Z,3.57
2023-03-29T04:45:02.515Z,4.53
2023-03-29T04:47:36.644Z,5.37
2023-03-29T04:50:08.463Z,2.90
2023-03-29T04:52:38.837Z,5.03
2023-03-29T04:55:12.690Z,3.40
2023-03-29T04:57:46.875Z,4.70
2023-03-29T05:00:20.891Z,3.40
2023-03-29T05:02:53.324Z,5.40
2023-03-29T05:05:23.281Z,4.10
2023-03-29T05:07:53.686Z,4.07
2023-03-29T05:10:23.741Z,6.00
2023-03-29T05:12:56.901Z,4.47
2023-03-29T05:15:26.913Z,3.30
2023-03-29T05:17:59.232Z,5.50
2023-03-29T05:20:30.055Z,3.13
2023-03-29T05:23:01.125Z,3.90
2023-03-29T05:25:31.698Z,2.93
2023-03-29T05:28:02.680Z,6.73
2023-03-29T05:30:32.542Z,5.77
2023-03-29T05:33:07.337Z,5.30
2023-03-29T05:35:38.253Z,5.17
2023-03-29T05:38:09.500Z,3.67
2023-03-29T05:40:41.701Z,3.27
2023-03-29T05:43:12.811Z,8.93
2023-03-29T05:45:43.530Z,4.90
2023-03-29T05:48:15.663Z,4.80
2023-03-29T05:50:51.114Z,3.60
2023-03-29T05:53:22.915Z,4.67
2023-03-29T05:55:54.426Z,3.67
2023-03-29T05:58:27.017Z,5.27
2023-03-29T06:00:57.996Z,5.53
2023-03-29T06:03:30.774Z,3.70
2023-03-29T06:06:02.625Z,4.23
2023-03-29T06:08:33.162Z,3.40
2023-03-29T06:11:05.368Z,7.20
2023-03-29T06:13:37.660Z,5.70
2023-03-29T06:16:09.496Z,4.10
2023-03-29T06:18:41.490Z,5.63
2023-03-29T06:21:11.168Z,6.20
2023-03-29T06:23:42.592Z,4.70
2023-03-29T06:26:13.138Z,3.37
2023-03-29T06:28:43.231Z,5.80
2023-03-29T06:31:13.869Z,4.03
2023-03-29T06:33:45.938Z,8.00
2023-03-29T06:36:17.354Z,5.07
2023-03-29T06:38:47.312Z,6.33
2023-03-29T06:41:18.156Z,8.33
2023-03-29T06:43:49.096Z,11.70
2023-03-29T06:46:19.778Z,7.40
2023-03-29T06:48:51.698Z,9.43
2023-03-29T06:51:23.523Z,5.90
2023-03-29T06:53:53.609Z,10.40
2023-03-29T06:56:24.348Z,5.50
2023-03-29T06:58:55.237Z,9.03
2023-03-29T07:01:25.547Z,7.70
2023-03-29T07:03:58.936Z,6.47
2023-03-29T07:06:29.079Z,7.37
2023-03-29T07:09:00.012Z,4.97
2023-03-29T07:11:31.986Z,6.90
2023-03-29T07:14:05.417Z,4.27
2023-03-29T07:16:37.284Z,5.03
2023-03-29T07:19:10.463Z,6.20
2023-03-29T07:21:41.010Z,5.37
2023-03-29T07:24:11.678Z,4.00
2023-03-29T07:26:52.225Z,4.20
2023-03-29T07:29:31.263Z,5.10
2023-03-29T07:32:01.619Z,3.70
2023-03-29T07:34:33.608Z,5.80
2023-03-29T07:37:04.023Z,8.47
2023-03-29T07:39:34.487Z,5.30
2023-03-29T07:42:04.787Z,4.03
2023-03-29T07:44:35.987Z,4.43
2023-03-29T07:47:07.215Z,8.27
2023-03-29T07:49:38.940Z,3.57
2023-03-29T07:52:09.875Z,3.40
2023-03-29T07:54:40.769Z,4.53
2023-03-29T07:57:11.327Z,4.80
2023-03-29T07:59:42.186Z,7.17
2023-03-29T08:02:13.637Z,2.73
2023-03-29T08:04:47.222Z,3.67
2023-03-29T08:07:19.501Z,6.13
2023-03-29T08:09:50.332Z,4.50
2023-03-29T08:12:22.561Z,4.87
2023-03-29T08:14:54.850Z,4.50
2023-03-29T08:17:25.835Z,6.83
2023-03-29T08:19:58.651Z,7.87
2023-03-29T08:22:28.791Z,3.10
2023-03-29T08:24:59.348Z,2.23
2023-03-29T08:27:29.223Z,3.87
2023-03-29T08:30:00.343Z,4.40
2023-03-29T08:32:30.785Z,5.07
2023-03-29T08:35:04.650Z,5.43
2023-03-29T08:37:35.645Z,3.57
2023-03-29T08:40:07.310Z,9.63
2023-03-29T08:42:58.466Z,6.50
2023-03-29T08:45:34.659Z,7.90
2023-03-29T08:48:14.365Z,8.20
2023-03-29T08:50:49.413Z,10.90
2023-03-29T08:53:21.235Z,8.30
2023-03-29T08:55:52.320Z,39.07
2023-03-29T08:58:25.309Z,14.57
2023-03-29T09:00:57.658Z,20.20
2023-03-29T09:03:31.633Z,14.73
2023-03-29T09:06:08.044Z,8.87
2023-03-29T09:08:41.333Z,10.47
2023-03-29T09:11:33.378Z,9.40
2023-03-29T09:14:12.338Z,30.20
2023-03-29T09:16:50.046Z,11.80
2023-03-29T09:19:28.764Z,10.40
2023-03-29T09:22:07.759Z,5.70
2023-03-29T09:24:54.801Z,7.90
2023-03-29T09:27:28.185Z,9.77
2023-03-29T09:30:25.137Z,7.60
2023-03-29T09:32:57.670Z,8.07
2023-03-29T09:35:33.555Z,7.67
2023-03-29T09:38:06.281Z,11.30
2023-03-29T09:40:42.936Z,10.13
2023-03-29T09:43:16.557Z,10.77
2023-03-29T09:45:50.258Z,8.80
2023-03-29T09:48:22.280Z,6.90
2023-03-29T09:50:53.688Z,19.27
2023-03-29T09:53:26.806Z,14.50
2023-03-29T09:55:57.164Z,14.90
2023-03-29T09:58:48.196Z,8.90
2023-03-29T10:01:19.833Z,5.80
2023-03-29T10:03:54.670Z,6.07
2023-03-29T10:06:27.189Z,14.33
2023-03-29T10:08:59.633Z,10.37
2023-03-29T10:11:34.137Z,10.10
2023-03-29T10:14:05.705Z,7.30
2023-03-29T10:16:39.053Z,10.80
2023-03-29T10:19:22.705Z,11.07
2023-03-29T10:21:54.389Z,8.50
2023-03-29T10:24:27.718Z,12.00
2023-03-29T10:27:01.644Z,15.47
2023-03-29T10:29:39.640Z,11.00
2023-03-29T10:32:18.083Z,8.90
2023-03-29T10:34:49.312Z,4.47
2023-03-29T10:37:22.039Z,5.70
2023-03-29T10:39:53.954Z,6.23
2023-03-29T10:42:27.340Z,6.50
2023-03-29T10:44:59.471Z,6.37
2023-03-29T10:47:35.796Z,4.20
2023-03-29T10:50:10.126Z,7.40
2023-03-29T10:52:42.833Z,4.80
2023-03-29T10:55:19.028Z,4.33
2023-03-29T10:57:58.272Z,6.10
2023-03-29T11:00:35.344Z,7.30
2023-03-29T11:03:28.713Z,7.10
2023-03-29T11:06:04.523Z,10.53
2023-03-29T11:08:44.301Z,8.80
2023-03-29T11:11:45.924Z,4.30
2023-03-29T11:14:28.338Z,4.20
2023-03-29T11:17:07.119Z,6.60
2023-03-29T11:19:55.776Z,3.77
2023-03-29T11:22:34.527Z,5.60
2023-03-29T11:25:30.314Z,8.77
2023-03-29T11:28:08.452Z,4.37
2023-03-29T11:30:43.145Z,6.00
2023-03-29T11:33:24.146Z,4.23
2023-03-29T11:35:58.454Z,4.87
2023-03-29T11:38:34.246Z,4.70
2023-03-29T11:41:07.886Z,8.10
2023-03-29T11:43:44.971Z,5.43
2023-03-29T11:46:17.871Z,6.70
2023-03-29T11:48:53.406Z,5.77
2023-03-29T11:51:28.416Z,6.03
2023-03-29T11:54:03.393Z,3.87
2023-03-29T11:56:38.134Z,5.17
2023-03-29T11:59:17.069Z,4.67
2023-03-29T12:01:50.898Z,5.37
2023-03-29T12:04:24.018Z,7.93
2023-03-29T12:07:01.788Z,6.90
2023-03-29T12:09:36.001Z,7.47
2023-03-29T12:12:10.524Z,7.40
2023-03-29T12:14:55.943Z,5.60
2023-03-29T12:17:31.864Z,4.07
2023-03-29T12:20:08.303Z,7.60
2023-03-29T12:22:39.905Z,8.07
2023-03-29T12:25:14.308Z,9.77
2023-03-29T12:27:51.841Z,4.17
2023-03-29T12:30:53.343Z,5.70
2023-03-29T12:33:36.778Z,3.73
2023-03-29T12:36:19.768Z,4.13
2023-03-29T12:38:52.691Z,4.40
2023-03-29T12:41:24.597Z,5.03
2023-03-29T12:43:54.867Z,6.00
2023-03-29T12:46:28.068Z,7.00
2023-03-29T12:49:00.005Z,7.30
2023-03-29T12:51:33.193Z,4.30
2023-03-29T12:54:09.377Z,4.00
2023-03-29T12:56:43.550Z,7.93
2023-03-29T12:59:36.499Z,4.43
2023-03-29T13:02:37.646Z,4.27
2023-03-29T13:05:30.085Z,6.40
2023-03-29T13:08:00.664Z,6.23
2023-03-29T13:10:41.608Z,4.50
2023-03-29T13:13:19.079Z,6.53
2023-03-29T13:15:50.780Z,15.50
2023-03-29T13:18:53.385Z,7.60
2023-03-29T13:21:29.788Z,3.43
2023-03-29T13:24:07.824Z,6.30
2023-03-29T13:26:51.794Z,6.23
2023-03-29T13:29:58.475Z,6.23
2023-03-29T13:32:53.074Z,4.63
2023-03-29T13:35:33.731Z,5.60
2023-03-29T13:38:11.425Z,8.00
2023-03-29T13:40:48.709Z,6.73
2023-03-29T13:43:25.343Z,7.10
2023-03-29T13:46:20.841Z,5.53
2023-03-29T13:48:57.437Z,9.70
2023-03-29T13:51:40.819Z,7.13
2023-03-29T13:54:30.185Z,10.10
2023-03-29T13:57:13.536Z,4.93
2023-03-29T13:59:56.512Z,11.73
2023-03-29T14:02:47.390Z,6.40
2023-03-29T14:05:21.224Z,4.80
2023-03-29T14:07:55.575Z,6.50
2023-03-29T14:10:29.498Z,8.13
2023-03-29T14:13:04.581Z,6.43
2023-03-29T14:15:46.817Z,11.77
2023-03-29T14:18:19.642Z,4.93
2023-03-29T14:20:54.163Z,8.70
2023-03-29T14:23:32.303Z,5.23
2023-03-29T14:26:11.897Z,6.67
2023-03-29T14:28:47.614Z,5.07
2023-03-29T14:31:33.766Z,5.87
2023-03-29T14:34:06.379Z,9.03
2023-03-29T14:36:36.744Z,5.43
2023-03-29T14:39:13.564Z,5.23
2023-03-29T14:41:48.711Z,5.07
2023-03-29T14:44:22.222Z,4.10
2023-03-29T14:46:53.502Z,4.90
2023-03-29T14:49:25.061Z,7.50
2023-03-29T14:51:59.549Z,5.97
2023-03-29T14:54:36.302Z,4.80
2023-03-29T14:57:09.549Z,6.20
2023-03-29T14:59:41.007Z,5.53
2023-03-29T15:02:28.455Z,6.53
2023-03-29T15:05:03.709Z,11.50
2023-03-29T15:07:35.393Z,9.73
2023-03-29T15:10:08.780Z,4.67
2023-03-29T15:12:40.143Z,5.30
2023-03-29T15:15:13.986Z,5.73
2023-03-29T15:17:51.830Z,5.63
2023-03-29T15:20:24.772Z,5.10
2023-03-29T15:22:58.145Z,8.53
2023-03-29T15:25:35.568Z,7.20
2023-03-29T15:28:07.230Z,5.73
2023-03-29T15:30:40.827Z,4.93
2023-03-29T15:33:18.074Z,5.67
2023-03-29T15:35:53.131Z,6.07
2023-03-29T15:38:30.333Z,11.17
2023-03-29T15:41:10.925Z,6.10
2023-03-29T15:43:42.874Z,6.47
2023-03-29T15:46:15.051Z,6.93
2023-03-29T15:48:46.639Z,7.67
2023-03-29T15:51:17.505Z,5.23
2023-03-29T15:53:49.111Z,4.87
2023-03-29T15:56:23.793Z,6.03
2023-03-29T15:58:54.580Z,10.77
2023-03-29T16:01:34.009Z,7.13
2023-03-29T16:04:05.715Z,7.10
2023-03-29T16:06:37.867Z,8.53
2023-03-29T16:09:08.923Z,8.67
2023-03-29T16:11:47.146Z,10.80
2023-03-29T16:14:27.392Z,7.40
2023-03-29T16:17:00.180Z,5.70
2023-03-29T16:19:34.390Z,6.20
2023-03-29T16:22:08.098Z,5.97
2023-03-29T16:24:39.668Z,5.10
2023-03-29T16:27:11.448Z,7.87
2023-03-29T16:29:41.796Z,7.97
2023-03-29T16:32:13.484Z,5.43
2023-03-29T16:34:43.661Z,7.00
2023-03-29T16:37:14.463Z,10.27
2023-03-29T16:39:46.809Z,5.77
2023-03-29T16:42:19.392Z,5.57
2023-03-29T16:44:49.980Z,5.60
2023-03-29T16:47:23.169Z,6.87
2023-03-29T16:49:53.767Z,7.70
2023-03-29T16:52:25.310Z,8.23
2023-03-29T16:54:55.610Z,6.20
2023-03-29T16:57:28.571Z,7.70
2023-03-29T17:00:00.007Z,9.30
2023-03-29T17:02:31.050Z,8.07
2023-03-29T17:05:00.868Z,10.87
2023-03-29T17:07:32.608Z,9.53
2023-03-29T17:10:04.958Z,9.40
2023-03-29T17:12:41.898Z,7.70
2023-03-29T17:15:12.730Z,6.63
2023-03-29T17:17:43.591Z,11.57
2023-03-29T17:20:15.782Z,9.70
2023-03-29T17:22:46.502Z,7.17
2023-03-29T17:25:17.084Z,10.10
2023-03-29T17:27:49.176Z,7.53
2023-03-29T17:30:19.339Z,8.90
2023-03-29T17:32:54.133Z,13.97
2023-03-29T17:35:25.240Z,11.37
2023-03-29T17:37:56.444Z,6.70
2023-03-29T17:40:27.902Z,7.17
2023-03-29T17:43:00.144Z,6.10
2023-03-29T17:45:32.569Z,6.80
2023-03-29T17:48:06.241Z,6.30
2023-03-29T17:50:37.486Z,6.27
2023-03-29T17:53:07.563Z,7.80
2023-03-29T17:55:41.250Z,10.97
2023-03-29T17:58:13.810Z,9.70
2023-03-29T18:00:44.458Z,6.57
2023-03-29T18:03:15.651Z,7.77
2023-03-29T18:05:45.843Z,7.33
2023-03-29T18:08:17.541Z,6.17
2023-03-29T18:10:47.982Z,9.93
2023-03-29T18:13:25.717Z,7.13
2023-03-29T18:16:02.781Z,6.90
2023-03-29T18:18:33.408Z,6.20
2023-03-29T18:21:07.108Z,7.03
2023-03-29T18:23:40.172Z,11.43
2023-03-29T18:26:10.644Z,9.53
2023-03-29T18:28:44.222Z,13.27
2023-03-29T18:31:14.569Z,11.50
2023-03-29T18:33:47.477Z,11.80
2023-03-29T18:36:17.897Z,11.67
2023-03-29T18:38:49.273Z,11.77
2023-03-29T18:41:21.267Z,12.63
2023-03-29T18:43:58.150Z,14.07
2023-03-29T18:46:31.554Z,11.87
2023-03-29T18:49:02.737Z,15.70
2023-03-29T18:51:34.074Z,12.30
2023-03-29T18:54:06.365Z,16.57
2023-03-29T18:56:37.220Z,18.53
2023-03-29T18:59:10.127Z,18.83
2023-03-29T19:01:41.533Z,18.90
2023-03-29T19:04:13.917Z,17.77
2023-03-29T19:06:44.560Z,17.60
2023-03-29T19:09:14.635Z,17.93
2023-03-29T19:11:48.101Z,14.37
2023-03-29T19:14:23.795Z,15.67
2023-03-29T19:16:54.197Z,16.07
2023-03-29T19:19:26.495Z,18.20
2023-03-29T19:21:59.084Z,14.23
2023-03-29T19:24:31.048Z,17.43
2023-03-29T19:27:02.635Z,16.90
2023-03-29T19:29:34.896Z,14.70
2023-03-29T19:32:07.247Z,16.80
2023-03-29T19:34:37.879Z,15.73
2023-03-29T19:37:08.623Z,17.13
2023-03-29T19:39:40.594Z,12.00
2023-03-29T19:42:10.769Z,11.33
2023-03-29T19:44:43.546Z,12.00
2023-03-29T19:47:13.932Z,11.40
2023-03-29T19:49:46.552Z,10.20
2023-03-29T19:52:17.105Z,11.37
2023-03-29T19:54:47.925Z,12.43
2023-03-29T19:57:17.815Z,13.20
2023-03-29T19:59:52.115Z,12.30
2023-03-29T20:02:23.754Z,11.67
2023-03-29T20:04:55.933Z,16.77
2023-03-29T20:07:26.099Z,11.33
2023-03-29T20:09:56.847Z,14.33
2023-03-29T20:12:30.685Z,11.80
2023-03-29T20:15:02.754Z,11.27
2023-03-29T20:17:35.798Z,12.23
2023-03-29T20:20:15.406Z,11.87
2023-03-29T20:22:47.438Z,12.83
2023-03-29T20:25:17.755Z,12.60
2023-03-29T20:27:49.168Z,12.80
2023-03-29T20:30:21.567Z,16.20
2023-03-29T20:32:53.086Z,15.57
2023-03-29T20:35:27.437Z,14.30
2023-03-29T20:37:57.597Z,15.17
2023-03-29T20:40:29.190Z,12.70
2023-03-29T20:42:59.357Z,12.67
2023-03-29T20:45:39.860Z,12.20
2023-03-29T20:48:17.220Z,14.40
2023-03-29T20:50:48.926Z,12.50
2023-03-29T20:53:20.613Z,12.30
2023-03-29T20:55:52.451Z,10.43
2023-03-29T20:58:24.094Z,13.00
2023-03-29T21:00:56.386Z,13.40
2023-03-29T21:03:28.906Z,13.47
2023-03-29T21:06:02.462Z,14.30
2023-03-29T21:08:34.204Z,16.40
2023-03-29T21:11:05.723Z,15.60
2023-03-29T21:13:37.331Z,14.27
2023-03-29T21:16:16.789Z,14.10
2023-03-29T21:18:47.365Z,16.23
2023-03-29T21:21:17.913Z,13.67
2023-03-29T21:23:48.680Z,13.57
2023-03-29T21:26:19.735Z,14.53
2023-03-29T21:28:49.915Z,18.63
2023-03-29T21:31:25.670Z,17.60
2023-03-29T21:33:57.056Z,14.77
2023-03-29T21:36:29.648Z,15.27
2023-03-29T21:38:59.720Z,13.10
2023-03-29T21:41:30.430Z,15.07
2023-03-29T21:44:00.813Z,13.53
2023-03-29T21:46:32.864Z,15.37
2023-03-29T21:49:03.830Z,13.37
2023-03-29T21:51:35.733Z,13.70
2023-03-29T21:54:06.002Z,16.30
2023-03-29T21:56:36.844Z,13.60
2023-03-29T21:59:07.793Z,14.17
2023-03-29T22:01:40.545Z,17.40
2023-03-29T22:04:12.324Z,18.83
2023-03-29T22:06:43.595Z,17.37
2023-03-29T22:09:14.210Z,20.80
2023-03-29T22:11:45.332Z,15.60
2023-03-29T22:14:16.709Z,14.83
2023-03-29T22:16:48.624Z,15.13
2023-03-29T22:19:20.318Z,15.73
2023-03-29T22:21:52.451Z,14.87
2023-03-29T22:24:22.974Z,20.33
2023-03-29T22:26:53.241Z,17.77
2023-03-29T22:29:24.091Z,14.30
2023-03-29T22:31:56.106Z,15.00
2023-03-29T22:34:27.387Z,23.70
2023-03-29T22:36:57.332Z,15.30
2023-03-29T22:39:28.859Z,14.40
2023-03-29T22:41:59.358Z,14.87
2023-03-29T22:44:30.378Z,12.93
2023-03-29T22:47:05.015Z,17.63
2023-03-29T22:49:36.634Z,13.27
2023-03-29T22:52:07.251Z,14.00
2023-03-29T22:54:37.953Z,15.47
2023-03-29T22:57:13.743Z,13.60
2023-03-29T22:59:43.584Z,12.53
2023-03-29T23:02:15.444Z,11.80
2023-03-29T23:04:45.914Z,13.13
2023-03-29T23:07:16.339Z,13.13
2023-03-29T23:09:47.549Z,11.30
2023-03-29T23:12:18.012Z,10.70
2023-03-29T23:14:48.190Z,12.20
2023-03-29T23:17:21.075Z,11.57
2023-03-29T23:19:52.352Z,10.60
2023-03-29T23:22:23.373Z,12.27
2023-03-29T23:24:54.104Z,12.73
2023-03-29T23:27:26.093Z,10.17
2023-03-29T23:29:57.390Z,11.70
2023-03-29T23:32:28.855Z,10.27
2023-03-29T23:35:00.352Z,10.47
2023-03-29T23:37:30.796Z,9.77
2023-03-29T23:40:01.127Z,9.43
2023-03-29T23:42:32.755Z,11.20
2023-03-29T23:45:04.605Z,10.10
2023-03-29T23:47:37.069Z,9.87
2023-03-29T23:50:10.415Z,11.20
2023-03-29T23:52:41.392Z,13.83
2023-03-29T23:55:16.579Z,11.13
2023-03-29T23:57:46.511Z,12.60
